createdAt,value
2022-10-15T00:00:04.933Z,16.22
2022-10-15T00:01:04.999Z,16.17
2022-10-15T00:02:04.933Z,16.23
2022-10-15T00:03:04.907Z,16.17
2022-10-15T00:04:04.908Z,16.18
2022-10-15T00:05:04.884Z,16.11
2022-10-15T00:06:04.875Z,16.26
2022-10-15T00:07:04.870Z,16.26
2022-10-15T00:08:04.857Z,16.16
2022-10-15T00:09:04.846Z,16.22
2022-10-15T00:10:04.835Z,16.18
2022-10-15T00:11:04.828Z,16.14
2022-10-15T00:12:04.818Z,16.10
2022-10-15T00:13:04.829Z,16.14
2022-10-15T00:14:04.797Z,16.18
2022-10-15T00:15:04.849Z,16.17
2022-10-15T00:16:04.779Z,16.26
2022-10-15T00:17:04.778Z,16.23
2022-10-15T00:18:04.777Z,16.30
2022-10-15T00:19:04.751Z,16.27
2022-10-15T00:20:04.742Z,16.29
2022-10-15T00:21:04.732Z,16.27
2022-10-15T00:22:04.722Z,16.30
2022-10-15T00:23:04.715Z,16.22
2022-10-15T00:24:04.703Z,16.29
2022-10-15T00:25:04.697Z,16.23
2022-10-15T00:26:04.686Z,16.27
2022-10-15T00:27:04.676Z,16.29
2022-10-15T00:28:04.666Z,16.29
2022-10-15T00:29:04.713Z,16.23
2022-10-15T00:30:04.647Z,16.25
2022-10-15T00:32:04.626Z,16.23
2022-10-15T00:33:04.618Z,16.27
2022-10-15T00:34:04.627Z,16.25
2022-10-15T00:35:04.601Z,16.25
2022-10-15T00:36:04.588Z,16.30
2022-10-15T00:37:04.578Z,16.25
2022-10-15T00:38:04.568Z,16.26
2022-10-15T00:39:04.560Z,16.36
2022-10-15T00:40:04.553Z,16.25
2022-10-15T00:41:04.541Z,16.34
2022-10-15T00:42:04.529Z,16.34
2022-10-15T00:43:04.521Z,16.34
2022-10-15T00:44:04.611Z,16.30
2022-10-15T00:45:04.502Z,16.36
2022-10-15T00:46:04.491Z,16.32
2022-10-15T00:47:04.485Z,16.34
2022-10-15T00:48:04.473Z,16.36
2022-10-15T00:50:04.570Z,16.40
2022-10-15T00:51:04.445Z,16.36
2022-10-15T00:52:04.434Z,16.47
2022-10-15T00:53:04.426Z,16.42
2022-10-15T00:54:04.416Z,16.40
2022-10-15T00:55:04.406Z,16.44
2022-10-15T00:56:04.394Z,16.42
2022-10-15T00:57:04.386Z,16.44
2022-10-15T00:58:04.419Z,16.40
2022-10-15T00:59:04.367Z,16.48
2022-10-15T01:00:04.365Z,16.48
2022-10-15T01:01:04.413Z,16.45
2022-10-15T01:02:04.340Z,16.47
2022-10-15T01:03:04.336Z,16.37
2022-10-15T01:04:04.317Z,16.45
2022-10-15T01:05:04.315Z,16.34
2022-10-15T01:06:04.315Z,16.45
2022-10-15T01:07:04.323Z,16.45
2022-10-15T01:08:04.280Z,16.48
2022-10-15T01:09:04.271Z,16.44
2022-10-15T01:10:04.259Z,16.44
2022-10-15T01:11:04.252Z,16.45
2022-10-15T01:12:04.245Z,16.41
2022-10-15T01:13:04.230Z,16.41
2022-10-15T01:14:04.223Z,16.51
2022-10-15T01:15:04.229Z,16.52
2022-10-15T01:16:04.274Z,16.44
2022-10-15T01:17:04.191Z,16.48
2022-10-15T01:18:04.182Z,16.52
2022-10-15T01:19:04.183Z,16.47
2022-10-15T01:20:04.162Z,16.45
2022-10-15T01:21:04.154Z,16.44
2022-10-15T01:22:04.165Z,16.51
2022-10-15T01:23:04.136Z,16.54
2022-10-15T01:24:04.123Z,16.47
2022-10-15T01:25:04.171Z,16.48
2022-10-15T01:26:04.104Z,16.48
2022-10-15T01:27:04.105Z,16.50
2022-10-15T01:28:04.083Z,16.50
2022-10-15T01:29:04.075Z,16.50
2022-10-15T01:30:04.064Z,16.51
2022-10-15T01:31:04.057Z,16.57
2022-10-15T01:32:04.046Z,16.51
2022-10-15T01:33:04.038Z,16.50
2022-10-15T01:34:04.100Z,16.55
2022-10-15T01:35:04.024Z,16.44
2022-10-15T01:36:06.347Z,16.51
2022-10-15T01:37:04.002Z,16.48
2022-10-15T01:38:04.006Z,16.54
2022-10-15T01:39:03.978Z,16.50
2022-10-15T01:40:03.968Z,16.51
2022-10-15T01:41:03.962Z,16.54
2022-10-15T01:42:03.948Z,16.50
2022-10-15T01:43:03.942Z,16.42
2022-10-15T01:44:03.935Z,16.51
2022-10-15T01:45:03.920Z,16.50
2022-10-15T01:46:03.910Z,16.52
2022-10-15T01:47:03.902Z,16.48
2022-10-15T01:48:03.891Z,16.52
2022-10-15T01:49:03.883Z,16.55
2022-10-15T01:50:03.873Z,16.50
2022-10-15T01:51:03.865Z,16.44
2022-10-15T01:52:03.853Z,16.52
2022-10-15T01:53:03.843Z,16.45
2022-10-15T01:54:03.852Z,16.45
2022-10-15T01:55:03.828Z,16.45
2022-10-15T01:56:03.818Z,16.48
2022-10-15T01:57:03.806Z,16.51
2022-10-15T01:58:03.794Z,16.47
2022-10-15T01:59:03.792Z,16.45
2022-10-15T02:00:03.776Z,16.55
2022-10-15T02:01:03.826Z,16.48
2022-10-15T02:02:03.757Z,16.45
2022-10-15T02:03:03.751Z,16.51
2022-10-15T02:04:03.739Z,16.50
2022-10-15T02:05:03.733Z,16.54
2022-10-15T02:06:03.717Z,16.59
2022-10-15T02:07:03.711Z,16.55
2022-10-15T02:08:03.699Z,16.47
2022-10-15T02:09:03.691Z,16.50
2022-10-15T02:10:03.699Z,16.59
2022-10-15T02:11:03.673Z,16.51
2022-10-15T02:12:03.662Z,16.50
2022-10-15T02:13:03.654Z,16.50
2022-10-15T02:14:03.642Z,16.60
2022-10-15T02:15:03.636Z,16.52
2022-10-15T02:16:03.623Z,16.60
2022-10-15T02:17:03.615Z,16.52
2022-10-15T02:18:03.604Z,16.50
2022-10-15T02:19:03.648Z,16.52
2022-10-15T02:20:03.586Z,16.55
2022-10-15T02:21:03.579Z,16.50
2022-10-15T02:22:03.565Z,16.52
2022-10-15T02:23:03.563Z,16.44
2022-10-15T02:24:03.549Z,16.47
2022-10-15T02:25:03.539Z,16.50
2022-10-15T02:26:03.547Z,16.50
2022-10-15T02:27:03.521Z,16.47
2022-10-15T02:28:03.509Z,16.54
2022-10-15T02:29:03.633Z,16.55
2022-10-15T02:30:03.491Z,16.59
2022-10-15T02:31:03.481Z,16.51
2022-10-15T02:32:03.469Z,16.55
2022-10-15T02:33:03.478Z,16.51
2022-10-15T02:34:03.451Z,16.50
2022-10-15T02:35:03.443Z,16.51
2022-10-15T02:36:03.432Z,16.48
2022-10-15T02:37:03.425Z,16.51
2022-10-15T02:38:03.521Z,16.52
2022-10-15T02:39:03.405Z,16.50
2022-10-15T02:40:03.394Z,16.51
2022-10-15T02:41:03.385Z,16.50
2022-10-15T02:42:03.391Z,16.51
2022-10-15T02:43:03.368Z,16.55
2022-10-15T02:44:03.357Z,16.47
2022-10-15T02:45:03.347Z,16.60
2022-10-15T02:46:03.337Z,16.54
2022-10-15T02:47:03.328Z,16.48
2022-10-15T02:48:03.317Z,16.51
2022-10-15T02:49:03.309Z,16.50
2022-10-15T02:50:03.297Z,16.51
2022-10-15T02:51:03.291Z,16.50
2022-10-15T02:52:03.279Z,16.51
2022-10-15T02:53:03.276Z,16.62
2022-10-15T02:54:03.259Z,16.54
2022-10-15T02:55:03.254Z,16.52
2022-10-15T02:56:03.240Z,16.51
2022-10-15T02:57:03.239Z,16.55
2022-10-15T02:58:03.240Z,16.50
2022-10-15T02:59:03.213Z,16.51
2022-10-15T03:00:03.205Z,16.52
2022-10-15T03:01:03.275Z,16.55
2022-10-15T03:02:03.183Z,16.52
2022-10-15T03:03:03.175Z,16.59
2022-10-15T03:04:03.168Z,16.63
2022-10-15T03:05:03.156Z,16.57
2022-10-15T03:06:03.245Z,16.57
2022-10-15T03:07:03.135Z,16.52
2022-10-15T03:08:03.127Z,16.52
2022-10-15T03:09:03.117Z,16.54
2022-10-15T03:10:03.107Z,16.52
2022-10-15T03:11:03.099Z,16.57
2022-10-15T03:12:03.089Z,16.62
2022-10-15T03:13:03.081Z,16.62
2022-10-15T03:14:03.087Z,16.65
2022-10-15T03:15:03.060Z,16.66
2022-10-15T03:16:03.049Z,16.69
2022-10-15T03:17:03.041Z,16.51
2022-10-15T03:18:03.036Z,16.52
2022-10-15T03:19:03.022Z,16.66
2022-10-15T03:20:03.012Z,16.55
2022-10-15T03:21:03.003Z,16.54
2022-10-15T03:22:02.995Z,16.59
2022-10-15T03:23:02.984Z,16.59
2022-10-15T03:24:02.977Z,16.52
2022-10-15T03:25:02.962Z,16.52
2022-10-15T03:26:02.955Z,16.60
2022-10-15T03:27:02.944Z,16.59
2022-10-15T03:28:02.938Z,16.51
2022-10-15T03:29:02.925Z,16.62
2022-10-15T03:30:03.007Z,16.59
2022-10-15T03:31:02.906Z,16.54
2022-10-15T03:32:02.901Z,16.60
2022-10-15T03:33:02.893Z,16.57
2022-10-15T03:34:02.882Z,16.59
2022-10-15T03:35:02.869Z,16.57
2022-10-15T03:36:02.864Z,16.52
2022-10-15T03:37:02.849Z,16.55
2022-10-15T03:38:02.842Z,16.54
2022-10-15T03:39:02.831Z,16.63
2022-10-15T03:40:02.823Z,16.54
2022-10-15T03:41:02.811Z,16.55
2022-10-15T03:42:02.805Z,16.59
2022-10-15T03:43:02.794Z,16.57
2022-10-15T03:44:02.786Z,16.55
2022-10-15T03:45:02.776Z,16.66
2022-10-15T03:46:02.786Z,16.59
2022-10-15T03:47:02.755Z,16.59
2022-10-15T03:48:02.747Z,16.59
2022-10-15T03:49:02.740Z,16.55
2022-10-15T03:50:02.728Z,16.57
2022-10-15T03:51:02.718Z,16.69
2022-10-15T03:52:02.710Z,16.62
2022-10-15T03:53:02.703Z,16.70
2022-10-15T03:54:02.692Z,16.62
2022-10-15T03:55:02.679Z,16.65
2022-10-15T03:56:02.672Z,16.60
2022-10-15T03:57:02.660Z,16.60
2022-10-15T03:58:02.652Z,16.54
2022-10-15T03:59:02.641Z,16.51
2022-10-15T04:00:02.636Z,16.55
2022-10-15T04:01:02.671Z,16.57
2022-10-15T04:02:02.631Z,16.60
2022-10-15T04:03:02.604Z,16.62
2022-10-15T04:04:02.599Z,16.59
2022-10-15T04:05:02.588Z,16.54
2022-10-15T04:06:03.389Z,16.55
2022-10-15T04:07:02.565Z,16.54
2022-10-15T04:08:02.559Z,16.50
2022-10-15T04:09:02.547Z,16.52
2022-10-15T04:10:02.541Z,16.57
2022-10-15T04:11:02.528Z,16.57
2022-10-15T04:12:02.523Z,16.52
2022-10-15T04:13:02.512Z,16.60
2022-10-15T04:14:02.506Z,16.59
2022-10-15T04:15:02.490Z,16.51
2022-10-15T04:16:02.483Z,16.60
2022-10-15T04:17:02.471Z,16.60
2022-10-15T04:18:02.481Z,16.57
2022-10-15T04:19:03.440Z,16.54
2022-10-15T04:20:02.450Z,16.52
2022-10-15T04:21:02.433Z,16.67
2022-10-15T04:22:02.426Z,16.66
2022-10-15T04:23:02.416Z,16.70
2022-10-15T04:24:02.410Z,16.65
2022-10-15T04:25:02.396Z,16.57
2022-10-15T04:26:02.389Z,16.67
2022-10-15T04:27:02.415Z,16.62
2022-10-15T04:28:02.369Z,16.62
2022-10-15T04:29:02.430Z,16.67
2022-10-15T04:30:02.352Z,16.65
2022-10-15T04:31:02.340Z,16.63
2022-10-15T04:32:02.332Z,16.60
2022-10-15T04:33:02.321Z,16.55
2022-10-15T04:34:02.332Z,16.52
2022-10-15T04:35:02.303Z,16.65
2022-10-15T04:36:02.353Z,16.62
2022-10-15T04:37:02.283Z,16.54
2022-10-15T04:38:02.277Z,16.65
2022-10-15T04:39:02.266Z,16.69
2022-10-15T04:40:02.260Z,16.69
2022-10-15T04:41:02.249Z,16.69
2022-10-15T04:42:02.241Z,16.65
2022-10-15T04:43:02.230Z,16.66
2022-10-15T04:44:02.221Z,16.63
2022-10-15T04:45:02.213Z,16.65
2022-10-15T04:46:02.201Z,16.63
2022-10-15T04:47:02.191Z,16.55
2022-10-15T04:48:02.185Z,16.54
2022-10-15T04:49:02.173Z,16.60
2022-10-15T04:50:02.182Z,16.62
2022-10-15T04:51:02.155Z,16.62
2022-10-15T04:52:02.148Z,16.52
2022-10-15T04:53:02.136Z,16.67
2022-10-15T04:54:02.129Z,16.65
2022-10-15T04:55:02.136Z,16.66
2022-10-15T04:56:02.112Z,16.63
2022-10-15T04:57:02.100Z,16.65
2022-10-15T04:58:02.093Z,16.62
2022-10-15T04:59:02.082Z,16.66
2022-10-15T05:00:02.076Z,16.55
2022-10-15T05:01:02.064Z,16.67
2022-10-15T05:02:02.192Z,16.55
2022-10-15T05:03:02.045Z,16.55
2022-10-15T05:04:02.038Z,16.51
2022-10-15T05:05:02.028Z,16.50
2022-10-15T05:06:02.041Z,16.60
2022-10-15T05:07:02.006Z,16.51
2022-10-15T05:08:02.005Z,16.57
2022-10-15T05:09:01.994Z,16.48
2022-10-15T05:10:01.982Z,16.48
2022-10-15T05:11:01.970Z,16.52
2022-10-15T05:12:01.977Z,16.55
2022-10-15T05:13:01.953Z,16.52
2022-10-15T05:14:01.948Z,16.45
2022-10-15T05:15:01.934Z,16.54
2022-10-15T05:16:01.927Z,16.45
2022-10-15T05:17:01.943Z,16.48
2022-10-15T05:18:01.909Z,16.42
2022-10-15T05:19:01.897Z,16.52
2022-10-15T05:20:01.890Z,16.51
2022-10-15T05:21:01.881Z,16.45
2022-10-15T05:22:01.891Z,16.51
2022-10-15T05:23:01.861Z,16.59
2022-10-15T05:24:01.854Z,16.55
2022-10-15T05:25:01.843Z,16.54
2022-10-15T05:26:01.835Z,16.54
2022-10-15T05:27:03.100Z,16.44
2022-10-15T05:28:01.817Z,16.47
2022-10-15T05:29:01.885Z,16.42
2022-10-15T05:30:01.799Z,16.51
2022-10-15T05:31:01.785Z,16.51
2022-10-15T05:32:01.778Z,16.51
2022-10-15T05:33:01.768Z,16.37
2022-10-15T05:34:01.759Z,16.59
2022-10-15T05:35:01.748Z,16.50
2022-10-15T05:36:01.741Z,16.48
2022-10-15T05:37:01.735Z,16.51
2022-10-15T05:38:01.748Z,16.47
2022-10-15T05:39:01.714Z,16.45
2022-10-15T05:40:01.707Z,16.50
2022-10-15T05:41:01.693Z,16.55
2022-10-15T05:42:01.686Z,16.54
2022-10-15T05:43:01.677Z,16.48
2022-10-15T05:44:01.667Z,16.52
2022-10-15T05:45:01.655Z,16.52
2022-10-15T05:46:01.648Z,16.52
2022-10-15T05:47:01.638Z,16.50
2022-10-15T05:48:01.630Z,16.59
2022-10-15T05:49:01.618Z,16.51
2022-10-15T05:50:01.611Z,16.55
2022-10-15T05:51:01.601Z,16.51
2022-10-15T05:52:01.597Z,16.57
2022-10-15T05:53:01.582Z,16.51
2022-10-15T05:54:01.591Z,16.55
2022-10-15T05:55:01.563Z,16.55
2022-10-15T05:56:01.557Z,16.55
2022-10-15T05:57:01.546Z,16.55
2022-10-15T05:58:01.544Z,16.60
2022-10-15T05:59:01.529Z,16.52
2022-10-15T06:00:01.518Z,16.54
2022-10-15T06:01:01.508Z,16.57
2022-10-15T06:02:01.647Z,16.50
2022-10-15T06:03:01.491Z,16.50
2022-10-15T06:04:01.482Z,16.51
2022-10-15T06:05:01.471Z,16.55
2022-10-15T06:06:01.467Z,16.55
2022-10-15T06:07:01.453Z,16.59
2022-10-15T06:08:01.446Z,16.55
2022-10-15T06:09:01.433Z,16.59
2022-10-15T06:10:01.443Z,16.54
2022-10-15T06:11:05.226Z,16.54
2022-10-15T06:12:01.409Z,16.54
2022-10-15T06:13:01.397Z,16.57
2022-10-15T06:14:01.393Z,16.60
2022-10-15T06:15:01.381Z,16.65
2022-10-15T06:16:01.372Z,16.59
2022-10-15T06:17:01.362Z,16.72
2022-10-15T06:18:01.359Z,16.77
2022-10-15T06:19:01.343Z,16.72
2022-10-15T06:20:01.338Z,16.66
2022-10-15T06:21:01.324Z,16.63
2022-10-15T06:22:01.317Z,16.73
2022-10-15T06:23:01.306Z,16.66
2022-10-15T06:24:03.134Z,16.62
2022-10-15T06:25:01.286Z,16.62
2022-10-15T06:26:01.300Z,16.59
2022-10-15T06:27:01.269Z,16.62
2022-10-15T06:28:01.262Z,16.65
2022-10-15T06:29:01.342Z,16.62
2022-10-15T06:30:01.246Z,16.52
2022-10-15T06:31:01.283Z,16.52
2022-10-15T06:32:01.232Z,16.51
2022-10-15T06:33:01.370Z,16.51
2022-10-15T06:34:01.207Z,16.59
2022-10-15T06:35:01.196Z,16.55
2022-10-15T06:36:01.195Z,16.57
2022-10-15T06:37:01.178Z,16.62
2022-10-15T06:38:03.108Z,16.57
2022-10-15T06:39:01.160Z,16.54
2022-10-15T06:40:01.153Z,16.54
2022-10-15T06:41:01.141Z,16.57
2022-10-15T06:42:01.154Z,16.51
2022-10-15T06:43:01.123Z,16.54
2022-10-15T06:44:01.126Z,16.57
2022-10-15T06:45:01.105Z,16.60
2022-10-15T06:46:01.096Z,16.63
2022-10-15T06:47:01.090Z,16.63
2022-10-15T06:48:01.081Z,16.63
2022-10-15T06:49:01.068Z,16.59
2022-10-15T06:50:01.060Z,16.69
2022-10-15T06:51:01.052Z,16.70
2022-10-15T06:52:03.515Z,16.80
2022-10-15T06:53:01.063Z,16.69
2022-10-15T06:54:01.025Z,16.75
2022-10-15T06:55:01.014Z,16.72
2022-10-15T06:56:01.007Z,16.85
2022-10-15T06:57:00.995Z,16.65
2022-10-15T06:58:01.007Z,16.87
2022-10-15T06:59:00.979Z,16.87
2022-10-15T07:00:00.971Z,16.85
2022-10-15T07:01:00.959Z,16.90
2022-10-15T07:02:00.953Z,16.87
2022-10-15T07:03:00.942Z,16.90
2022-10-15T07:04:01.048Z,16.96
2022-10-15T07:05:00.926Z,16.85
2022-10-15T07:06:00.925Z,16.95
2022-10-15T07:07:00.910Z,16.98
2022-10-15T07:08:00.903Z,16.96
2022-10-15T07:09:00.889Z,16.98
2022-10-15T07:10:00.881Z,17.03
2022-10-15T07:11:00.871Z,17.15
2022-10-15T07:12:00.862Z,17.20
2022-10-15T07:13:00.855Z,17.24
2022-10-15T07:14:00.864Z,17.30
2022-10-15T07:15:00.836Z,17.30
2022-10-15T07:16:00.827Z,17.27
2022-10-15T07:17:00.818Z,17.27
2022-10-15T07:18:00.810Z,17.28
2022-10-15T07:19:00.801Z,17.45
2022-10-15T07:20:00.792Z,17.47
2022-10-15T07:21:00.846Z,17.57
2022-10-15T07:22:00.774Z,17.57
2022-10-15T07:23:00.764Z,17.53
2022-10-15T07:24:00.759Z,17.66
2022-10-15T07:25:00.749Z,17.65
2022-10-15T07:26:00.741Z,17.62
2022-10-15T07:27:05.139Z,17.73
2022-10-15T07:28:00.726Z,17.65
2022-10-15T07:29:00.753Z,17.68
2022-10-15T07:30:00.723Z,17.65
2022-10-15T07:31:00.694Z,17.63
2022-10-15T07:32:00.691Z,17.73
2022-10-15T07:33:00.731Z,17.71
2022-10-15T07:34:00.673Z,17.60
2022-10-15T07:35:00.662Z,17.77
2022-10-15T07:36:00.655Z,17.80
2022-10-15T07:37:00.645Z,17.79
2022-10-15T07:38:00.638Z,17.81
2022-10-15T07:39:00.630Z,17.89
2022-10-15T07:40:00.619Z,18.05
2022-10-15T07:41:00.612Z,18.07
2022-10-15T07:42:00.658Z,18.11
2022-10-15T07:43:00.598Z,18.05
2022-10-15T07:44:00.587Z,18.17
2022-10-15T07:45:00.580Z,18.26
2022-10-15T07:46:00.586Z,18.25
2022-10-15T07:47:00.563Z,18.23
2022-10-15T07:48:00.557Z,18.36
2022-10-15T07:49:00.548Z,18.28
2022-10-15T07:50:00.538Z,18.42
2022-10-15T07:51:00.532Z,18.47
2022-10-15T07:52:00.522Z,18.44
2022-10-15T07:53:00.515Z,18.49
2022-10-15T07:54:00.505Z,18.51
2022-10-15T07:55:00.498Z,18.54
2022-10-15T07:56:00.491Z,18.54
2022-10-15T07:57:00.482Z,18.69
2022-10-15T07:58:00.472Z,18.66
2022-10-15T07:59:00.469Z,18.83
2022-10-15T08:00:00.456Z,18.91
2022-10-15T08:01:00.451Z,18.84
2022-10-15T08:02:00.459Z,18.91
2022-10-15T08:03:00.434Z,18.97
2022-10-15T08:04:00.424Z,18.97
2022-10-15T08:05:00.418Z,18.93
2022-10-15T08:06:00.422Z,19.01
2022-10-15T08:07:00.404Z,19.01
2022-10-15T08:08:00.396Z,19.07
2022-10-15T08:09:00.488Z,19.15
2022-10-15T08:10:00.379Z,19.13
2022-10-15T08:11:00.373Z,19.17
2022-10-15T08:12:00.366Z,19.24
2022-10-15T08:13:00.357Z,19.24
2022-10-15T08:14:00.352Z,19.12
2022-10-15T08:15:00.343Z,19.25
2022-10-15T08:16:00.508Z,19.23
2022-10-15T08:17:00.327Z,19.32
2022-10-15T08:18:00.362Z,19.31
2022-10-15T08:19:00.318Z,19.34
2022-10-15T08:20:00.305Z,19.39
2022-10-15T08:21:00.304Z,19.43
2022-10-15T08:22:00.309Z,19.45
2022-10-15T08:23:00.285Z,19.45
2022-10-15T08:24:00.274Z,19.34
2022-10-15T08:25:00.275Z,19.34
2022-10-15T08:26:00.259Z,19.34
2022-10-15T08:27:00.253Z,19.38
2022-10-15T08:28:00.280Z,19.45
2022-10-15T08:29:00.296Z,19.45
2022-10-15T08:30:00.231Z,19.42
2022-10-15T08:31:04.304Z,19.42
2022-10-15T08:32:00.216Z,19.40
2022-10-15T08:33:00.209Z,19.39
2022-10-15T08:34:00.221Z,19.49
2022-10-15T08:35:00.200Z,19.62
2022-10-15T08:36:00.187Z,19.64
2022-10-15T08:37:00.188Z,19.71
2022-10-15T08:38:00.180Z,19.64
2022-10-15T08:39:00.166Z,19.68
2022-10-15T08:40:00.361Z,19.68
2022-10-15T08:41:00.151Z,19.75
2022-10-15T08:42:00.144Z,19.71
2022-10-15T08:43:00.139Z,19.78
2022-10-15T08:44:00.130Z,19.89
2022-10-15T08:45:00.128Z,19.85
2022-10-15T08:46:00.117Z,19.95
2022-10-15T08:47:00.110Z,19.90
2022-10-15T08:48:00.104Z,20.02
2022-10-15T08:49:00.096Z,20.08
2022-10-15T08:50:00.122Z,20.04
2022-10-15T08:51:00.091Z,20.10
2022-10-15T08:52:00.073Z,20.15
2022-10-15T08:53:00.084Z,20.10
2022-10-15T08:54:00.083Z,20.04
2022-10-15T08:55:00.059Z,20.08
2022-10-15T08:56:00.048Z,20.13
2022-10-15T08:57:00.042Z,20.16
2022-10-15T08:58:00.039Z,20.26
2022-10-15T08:59:00.041Z,20.19
2022-10-15T09:00:00.021Z,20.23
2022-10-15T09:01:00.016Z,20.19
2022-10-15T09:02:00.008Z,20.23
2022-10-15T09:03:00.064Z,20.07
2022-10-15T09:03:59.995Z,20.19
2022-10-15T09:04:59.990Z,20.17
2022-10-15T09:06:00.001Z,20.15
2022-10-15T09:06:59.976Z,20.20
2022-10-15T09:07:59.967Z,20.20
2022-10-15T09:08:59.963Z,20.40
2022-10-15T09:09:59.955Z,20.63
2022-10-15T09:10:59.953Z,20.56
2022-10-15T09:11:59.944Z,20.61
2022-10-15T09:12:59.937Z,20.51
2022-10-15T09:13:59.931Z,20.46
2022-10-15T09:14:59.926Z,20.51
2022-10-15T09:15:59.917Z,20.60
2022-10-15T09:16:59.912Z,20.72
2022-10-15T09:17:59.905Z,20.90
2022-10-15T09:18:59.907Z,20.91
2022-10-15T09:19:59.892Z,20.87
2022-10-15T09:20:59.888Z,20.93
2022-10-15T09:21:59.897Z,20.90
2022-10-15T09:22:59.875Z,20.94
2022-10-15T09:23:59.868Z,20.93
2022-10-15T09:24:59.862Z,20.93
2022-10-15T09:25:59.855Z,20.88
2022-10-15T09:26:59.851Z,20.90
2022-10-15T09:27:59.844Z,20.83
2022-10-15T09:28:59.933Z,20.83
2022-10-15T09:29:59.832Z,20.83
2022-10-15T09:30:59.826Z,20.88
2022-10-15T09:31:59.826Z,20.82
2022-10-15T09:32:59.813Z,20.85
2022-10-15T09:33:59.806Z,20.78
2022-10-15T09:34:59.803Z,20.79
2022-10-15T09:35:59.795Z,20.78
2022-10-15T09:36:59.790Z,20.83
2022-10-15T09:38:04.847Z,20.76
2022-10-15T09:38:59.777Z,20.76
2022-10-15T09:39:59.773Z,20.66
2022-10-15T09:40:59.836Z,20.75
2022-10-15T09:41:59.772Z,20.75
2022-10-15T09:42:59.807Z,20.75
2022-10-15T09:43:59.747Z,20.75
2022-10-15T09:44:59.742Z,20.75
2022-10-15T09:45:59.735Z,20.73
2022-10-15T09:46:59.732Z,20.76
2022-10-15T09:47:59.722Z,20.83
2022-10-15T09:48:59.921Z,20.73
2022-10-15T09:49:59.710Z,20.64
2022-10-15T09:50:59.706Z,20.72
2022-10-15T09:51:59.699Z,20.75
2022-10-15T09:52:59.694Z,20.73
2022-10-15T09:53:59.704Z,20.72
2022-10-15T09:54:59.682Z,20.63
2022-10-15T09:55:59.680Z,20.78
2022-10-15T09:56:59.672Z,20.79
2022-10-15T09:57:59.665Z,20.78
2022-10-15T09:58:59.658Z,20.68
2022-10-15T09:59:59.650Z,20.71
2022-10-15T10:00:59.652Z,20.68
2022-10-15T10:01:59.677Z,20.57
2022-10-15T10:02:59.635Z,20.58
2022-10-15T10:03:59.627Z,20.57
2022-10-15T10:04:59.623Z,20.54
2022-10-15T10:05:59.616Z,20.53
2022-10-15T10:06:59.611Z,20.48
2022-10-15T10:07:59.603Z,20.41
2022-10-15T10:08:59.598Z,20.44
2022-10-15T10:09:59.628Z,20.48
2022-10-15T10:10:59.586Z,20.48
2022-10-15T10:11:59.578Z,20.46
2022-10-15T10:12:59.581Z,20.42
2022-10-15T10:13:59.569Z,20.53
2022-10-15T10:14:59.564Z,20.46
2022-10-15T10:15:59.702Z,20.48
2022-10-15T10:16:59.550Z,20.50
2022-10-15T10:17:59.545Z,20.58
2022-10-15T10:18:59.538Z,20.48
2022-10-15T10:19:59.531Z,20.51
2022-10-15T10:20:59.526Z,20.46
2022-10-15T10:21:59.518Z,20.48
2022-10-15T10:22:59.513Z,20.54
2022-10-15T10:23:59.510Z,20.50
2022-10-15T10:24:59.505Z,20.60
2022-10-15T10:25:59.515Z,20.60
2022-10-15T10:26:59.558Z,20.61
2022-10-15T10:27:59.481Z,20.54
2022-10-15T10:29:04.979Z,20.60
2022-10-15T10:29:59.468Z,20.75
2022-10-15T10:30:59.468Z,20.78
2022-10-15T10:31:59.457Z,20.76
2022-10-15T10:32:59.454Z,20.78
2022-10-15T10:33:59.444Z,20.75
2022-10-15T10:34:59.440Z,20.81
2022-10-15T10:35:59.505Z,20.85
2022-10-15T10:37:59.423Z,20.82
2022-10-15T10:38:59.414Z,20.87
2022-10-15T10:39:59.410Z,20.91
2022-10-15T10:40:59.402Z,20.91
2022-10-15T10:41:59.423Z,20.88
2022-10-15T10:42:59.665Z,21.00
2022-10-15T10:43:59.386Z,20.96
2022-10-15T10:44:59.381Z,20.96
2022-10-15T10:45:59.373Z,21.00
2022-10-15T10:46:59.367Z,21.00
2022-10-15T10:47:59.364Z,21.03
2022-10-15T10:48:59.354Z,21.15
2022-10-15T10:49:59.352Z,21.15
2022-10-15T10:51:59.345Z,21.28
2022-10-15T10:52:59.332Z,21.30
2022-10-15T10:53:59.328Z,21.30
2022-10-15T10:54:59.327Z,21.28
2022-10-15T10:55:59.318Z,21.19
2022-10-15T10:56:59.311Z,21.21
2022-10-15T10:57:59.321Z,21.22
2022-10-15T10:58:59.299Z,21.27
2022-10-15T10:59:59.292Z,21.26
2022-10-15T11:00:59.340Z,21.18
2022-10-15T11:01:59.280Z,21.22
2022-10-15T11:02:59.277Z,21.08
2022-10-15T11:03:59.332Z,21.16
2022-10-15T11:04:59.264Z,21.18
2022-10-15T11:05:59.262Z,21.16
2022-10-15T11:06:59.253Z,21.16
2022-10-15T11:07:59.246Z,21.24
2022-10-15T11:08:59.242Z,21.16
2022-10-15T11:09:59.236Z,21.28
2022-10-15T11:10:59.237Z,21.40
2022-10-15T11:11:59.224Z,21.46
2022-10-15T11:12:59.252Z,21.61
2022-10-15T11:13:59.231Z,21.67
2022-10-15T11:14:59.209Z,21.79
2022-10-15T11:15:59.202Z,21.83
2022-10-15T11:16:59.198Z,21.85
2022-10-15T11:17:59.191Z,22.02
2022-10-15T11:18:59.187Z,21.93
2022-10-15T11:20:21.747Z,22.02
2022-10-15T11:21:01.776Z,21.98
2022-10-15T11:21:59.169Z,21.96
2022-10-15T11:22:59.166Z,21.94
2022-10-15T11:23:59.261Z,21.98
2022-10-15T11:25:06.632Z,21.99
2022-10-15T11:25:59.148Z,21.96
2022-10-15T11:27:09.746Z,22.08
2022-10-15T11:27:59.139Z,21.93
2022-10-15T11:28:59.243Z,21.93
2022-10-15T11:29:59.144Z,21.94
2022-10-15T11:30:59.126Z,21.91
2022-10-15T11:32:02.826Z,22.01
2022-10-15T11:33:07.495Z,22.06
2022-10-15T11:33:59.108Z,22.12
2022-10-15T11:34:59.105Z,22.15
2022-10-15T11:35:59.105Z,22.15
2022-10-15T11:36:59.094Z,22.19
2022-10-15T11:37:59.089Z,22.27
2022-10-15T11:38:59.086Z,22.20
2022-10-15T11:39:59.079Z,22.19
2022-10-15T11:40:59.075Z,22.15
2022-10-15T11:41:59.069Z,22.14
2022-10-15T11:42:59.066Z,22.09
2022-10-15T11:43:59.059Z,22.27
2022-10-15T11:44:59.056Z,22.27
2022-10-15T11:45:59.068Z,22.24
2022-10-15T11:46:59.045Z,22.11
2022-10-15T11:47:59.040Z,22.05
2022-10-15T11:48:59.037Z,22.04
2022-10-15T11:49:59.032Z,21.98
2022-10-15T11:50:59.027Z,21.93
2022-10-15T11:51:59.022Z,21.91
2022-10-15T11:52:59.017Z,21.83
2022-10-15T11:53:59.011Z,21.67
2022-10-15T11:54:59.108Z,21.70
2022-10-15T11:55:58.999Z,21.63
2022-10-15T11:56:58.995Z,21.64
2022-10-15T11:57:58.993Z,21.75
2022-10-15T11:59:58.982Z,21.77
2022-10-15T12:00:58.976Z,21.71
2022-10-15T12:01:58.989Z,21.64
2022-10-15T12:02:58.988Z,21.70
2022-10-15T12:03:58.983Z,21.52
2022-10-15T12:04:58.956Z,21.55
2022-10-15T12:05:58.952Z,21.53
2022-10-15T12:06:58.946Z,21.42
2022-10-15T12:07:58.964Z,21.37
2022-10-15T12:08:58.935Z,21.34
2022-10-15T12:09:58.930Z,21.36
2022-10-15T12:10:58.925Z,21.31
2022-10-15T12:12:02.074Z,21.31
2022-10-15T12:12:59.119Z,21.38
2022-10-15T12:13:58.911Z,21.43
2022-10-15T12:14:58.908Z,21.52
2022-10-15T12:15:58.904Z,21.56
2022-10-15T12:16:58.930Z,21.61
2022-10-15T12:17:58.910Z,21.55
2022-10-15T12:18:58.883Z,21.68
2022-10-15T12:19:58.880Z,21.71
2022-10-15T12:20:58.877Z,21.74
2022-10-15T12:21:58.870Z,21.64
2022-10-15T12:22:58.861Z,21.71
2022-10-15T12:23:58.861Z,21.59
2022-10-15T12:24:58.856Z,21.67
2022-10-15T12:25:58.848Z,21.70
2022-10-15T12:26:58.844Z,21.70
2022-10-15T12:27:58.850Z,21.73
2022-10-15T12:29:00.907Z,21.71
2022-10-15T12:29:58.829Z,21.77
2022-10-15T12:30:58.821Z,21.77
2022-10-15T12:31:58.818Z,21.91
2022-10-15T12:32:58.810Z,21.93
2022-10-15T12:33:58.825Z,21.89
2022-10-15T12:34:58.802Z,21.85
2022-10-15T12:35:58.801Z,21.93
2022-10-15T12:36:58.790Z,21.86
2022-10-15T12:37:58.785Z,21.99
2022-10-15T12:38:58.791Z,22.01
2022-10-15T12:39:58.776Z,21.98
2022-10-15T12:40:58.768Z,21.96
2022-10-15T12:41:58.765Z,22.04
2022-10-15T12:42:58.757Z,22.02
2022-10-15T12:43:58.759Z,22.06
2022-10-15T12:44:58.755Z,22.17
2022-10-15T12:45:58.749Z,22.21
2022-10-15T12:46:58.741Z,22.17
2022-10-15T12:47:58.735Z,22.24
2022-10-15T12:48:58.729Z,22.19
2022-10-15T12:49:58.743Z,22.31
2022-10-15T12:50:58.733Z,22.33
2022-10-15T12:51:58.716Z,22.44
2022-10-15T12:52:58.710Z,22.39
2022-10-15T12:53:58.707Z,22.45
2022-10-15T12:55:00.479Z,22.38
2022-10-15T12:55:58.697Z,22.41
2022-10-15T12:56:58.690Z,22.44